createdAt,value
2022-09-20T00:02:45.436Z,71.41
2022-09-20T00:06:49.088Z,71.18
2022-09-20T00:10:54.191Z,71.45
2022-09-20T00:14:58.941Z,71.66
2022-09-20T00:19:04.348Z,71.63
2022-09-20T00:23:07.985Z,71.64
2022-09-20T00:27:10.994Z,71.64
2022-09-20T00:31:17.289Z,71.76
2022-09-20T00:35:20.290Z,71.70
2022-09-20T00:39:23.827Z,71.93
2022-09-20T00:43:38.276Z,71.76
2022-09-20T00:47:47.212Z,71.93
2022-09-20T00:51:54.012Z,71.95
2022-09-20T00:56:02.289Z,71.37
2022-09-20T01:00:08.079Z,71.53
2022-09-20T01:04:15.499Z,71.66
2022-09-20T01:08:19.507Z,71.40
2022-09-20T01:12:26.097Z,71.68
2022-09-20T01:16:31.377Z,71.25
2022-09-20T01:20:39.449Z,70.74
2022-09-20T01:24:50.696Z,70.67
2022-09-20T01:29:03.054Z,70.77
2022-09-20T01:33:13.785Z,70.37
2022-09-20T01:37:26.050Z,70.15
2022-09-20T01:41:37.158Z,70.21
2022-09-20T01:45:47.094Z,69.84
2022-09-20T01:49:59.363Z,70.40
2022-09-20T01:54:45.172Z,70.60
2022-09-20T01:59:24.855Z,70.22
2022-09-20T02:03:53.258Z,70.51
2022-09-20T02:08:28.515Z,70.60
2022-09-20T02:12:52.162Z,70.72
2022-09-20T02:16:58.818Z,70.40
2022-09-20T02:21:11.501Z,70.42
2022-09-20T02:25:25.300Z,70.57
2022-09-20T02:29:35.841Z,70.53
2022-09-20T02:33:57.923Z,70.28
2022-09-20T02:38:17.857Z,70.27
2022-09-20T02:42:27.004Z,70.21
2022-09-20T02:46:35.292Z,70.41
2022-09-20T02:50:47.502Z,70.64
2022-09-20T02:55:00.008Z,70.79
2022-09-20T02:59:13.142Z,70.95
2022-09-20T03:03:25.716Z,70.84
2022-09-20T03:07:41.274Z,71.09
2022-09-20T03:11:54.859Z,71.19
2022-09-20T03:16:08.931Z,71.10
2022-09-20T03:20:25.744Z,71.48
2022-09-20T03:24:42.252Z,71.22
2022-09-20T03:28:58.959Z,71.22
2022-09-20T03:33:15.226Z,71.32
2022-09-20T03:37:35.168Z,71.17
2022-09-20T03:42:03.822Z,71.74
2022-09-20T03:46:19.371Z,71.55
2022-09-20T03:50:38.995Z,71.55
2022-09-20T03:55:21.475Z,71.70
2022-09-20T03:59:44.908Z,71.80
2022-09-20T04:03:55.398Z,71.89
2022-09-20T04:08:13.227Z,72.03
2022-09-20T04:12:27.642Z,71.96
2022-09-20T04:16:43.172Z,72.06
2022-09-20T04:20:52.160Z,71.87
2022-09-20T04:25:02.260Z,72.03
2022-09-20T04:29:21.327Z,72.09
2022-09-20T04:33:30.008Z,72.03
2022-09-20T04:37:38.546Z,72.17
2022-09-20T04:42:25.974Z,71.86
2022-09-20T04:46:55.892Z,71.96
2022-09-20T04:51:41.160Z,72.16
2022-09-20T04:56:02.482Z,72.02
2022-09-20T05:00:11.473Z,71.76
2022-09-20T05:04:38.878Z,71.94
2022-09-20T05:09:10.441Z,71.62
2022-09-20T05:13:28.798Z,71.42
2022-09-20T05:17:45.254Z,71.80
2022-09-20T05:22:07.290Z,71.44
2022-09-20T05:26:28.335Z,71.84
2022-09-20T05:30:39.205Z,71.87
2022-09-20T05:34:51.622Z,71.76
2022-09-20T05:39:03.592Z,71.92
2022-09-20T05:43:13.072Z,72.16
2022-09-20T05:47:23.874Z,72.23
2022-09-20T05:51:45.839Z,72.46
2022-09-20T05:56:02.130Z,72.17
2022-09-20T06:00:10.371Z,71.90
2022-09-20T06:04:21.420Z,72.14
2022-09-20T06:08:50.382Z,72.23
2022-09-20T06:12:59.945Z,71.65
2022-09-20T06:17:15.145Z,71.78
2022-09-20T06:21:32.454Z,71.68
2022-09-20T06:25:44.241Z,71.43
2022-09-20T06:29:57.540Z,71.29
2022-09-20T06:34:06.169Z,70.99
2022-09-20T06:38:42.302Z,70.24
2022-09-20T06:42:45.521Z,70.21
2022-09-20T06:46:49.576Z,70.03
2022-09-20T06:50:53.266Z,70.06
2022-09-20T06:54:58.099Z,69.79
2022-09-20T06:59:01.660Z,70.36
2022-09-20T07:03:05.162Z,70.12
2022-09-20T07:07:10.065Z,70.49
2022-09-20T07:11:17.648Z,69.17
2022-09-20T07:15:23.390Z,68.32
2022-09-20T07:19:26.576Z,68.09
2022-09-20T07:23:31.434Z,67.50
2022-09-20T07:27:36.768Z,67.18
2022-09-20T07:31:39.851Z,66.54
2022-09-20T07:35:43.545Z,66.34
2022-09-20T07:39:47.484Z,67.46
2022-09-20T07:43:52.854Z,67.71
2022-09-20T07:47:56.022Z,67.56
2022-09-20T07:52:00.278Z,67.52
2022-09-20T07:56:05.950Z,66.01
2022-09-20T08:00:13.029Z,66.00
2022-09-20T08:04:16.637Z,65.58
2022-09-20T08:08:20.657Z,65.78
2022-09-20T08:16:50.248Z,64.89
2022-09-20T08:20:53.345Z,65.53
2022-09-20T08:24:56.348Z,65.63
2022-09-20T08:29:01.751Z,67.27
2022-09-20T08:33:07.066Z,68.21
2022-09-20T08:37:10.566Z,68.93
2022-09-20T08:41:17.856Z,71.23
2022-09-20T08:45:34.474Z,70.60
2022-09-20T08:49:46.157Z,71.03
2022-09-20T08:53:52.915Z,67.22
2022-09-20T08:57:58.185Z,65.51
2022-09-20T09:02:01.966Z,62.82
2022-09-20T09:06:11.754Z,64.06
2022-09-20T09:10:17.531Z,62.70
2022-09-20T09:14:44.912Z,63.54
2022-09-20T09:18:49.406Z,62.71
2022-09-20T09:23:03.182Z,63.31
2022-09-20T09:27:10.845Z,63.78
2022-09-20T09:31:22.727Z,61.00
2022-09-20T09:35:30.115Z,62.17
2022-09-20T09:39:38.711Z,59.02
2022-09-20T09:43:42.199Z,55.41
2022-09-20T09:47:46.171Z,57.70
2022-09-20T09:52:06.104Z,54.31
2022-09-20T09:56:47.859Z,55.07
2022-09-20T10:00:54.051Z,53.86
2022-09-20T10:05:04.861Z,53.97
2022-09-20T10:09:24.999Z,56.59
2022-09-20T10:13:40.599Z,57.12
2022-09-20T10:17:58.180Z,59.12
2022-09-20T10:22:09.988Z,57.77
2022-09-20T10:26:27.742Z,57.41
2022-09-20T10:30:46.900Z,57.32
2022-09-20T10:35:14.809Z,58.90
2022-09-20T10:39:24.126Z,60.47
2022-09-20T10:43:40.818Z,62.83
2022-09-20T10:47:57.005Z,63.48
2022-09-20T10:52:35.899Z,63.50
2022-09-20T10:56:45.247Z,62.24
2022-09-20T11:00:56.789Z,59.75
2022-09-20T11:05:20.522Z,58.75
2022-09-20T11:09:29.026Z,56.09
2022-09-20T11:13:39.926Z,51.33
2022-09-20T11:17:46.866Z,48.70
2022-09-20T11:21:56.012Z,50.24
2022-09-20T11:26:06.897Z,50.80
2022-09-20T11:30:18.313Z,52.55
2022-09-20T11:34:28.904Z,53.28
2022-09-20T11:38:40.417Z,52.66
2022-09-20T11:42:44.835Z,50.56
2022-09-20T11:46:54.058Z,50.06
2022-09-20T11:51:30.058Z,53.59
2022-09-20T11:55:44.318Z,52.02
2022-09-20T11:59:53.217Z,53.30
2022-09-20T12:04:20.684Z,52.87
2022-09-20T12:08:27.263Z,56.05
2022-09-20T12:12:39.458Z,56.44
2022-09-20T12:16:44.553Z,57.16
2022-09-20T12:21:09.020Z,55.55
2022-09-20T12:25:39.100Z,56.52
2022-09-20T12:30:03.946Z,56.05
2022-09-20T12:34:36.648Z,56.09
2022-09-20T12:38:47.171Z,52.36
2022-09-20T12:42:58.106Z,54.02
2022-09-20T12:47:06.918Z,50.76
2022-09-20T12:51:40.995Z,51.13
2022-09-20T12:55:53.491Z,48.54
2022-09-20T12:59:59.128Z,50.70
2022-09-20T13:04:40.943Z,52.21
2022-09-20T13:08:49.519Z,50.49
2022-09-20T13:12:57.860Z,52.96
2022-09-20T13:17:04.768Z,49.38
2022-09-20T13:21:09.559Z,50.63
2022-09-20T13:25:16.534Z,49.07
2022-09-20T13:29:27.941Z,49.77
2022-09-20T13:33:31.427Z,47.66
2022-09-20T13:37:35.983Z,45.35
2022-09-20T13:41:40.928Z,46.47
2022-09-20T13:45:45.627Z,48.08
2022-09-20T13:49:49.747Z,46.78
2022-09-20T13:53:52.998Z,46.53
2022-09-20T13:58:01.957Z,47.46
2022-09-20T14:02:05.989Z,47.42
2022-09-20T14:06:16.642Z,49.20
2022-09-20T14:10:33.085Z,50.75
2022-09-20T14:14:38.530Z,51.02
2022-09-20T14:18:43.040Z,51.82
2022-09-20T14:22:47.097Z,52.14
2022-09-20T14:27:02.684Z,53.57
2022-09-20T14:31:15.019Z,56.60
2022-09-20T14:35:20.482Z,57.44
2022-09-20T14:39:24.112Z,58.96
2022-09-20T14:43:32.040Z,59.52
2022-09-20T14:47:41.377Z,59.01
2022-09-20T14:51:46.015Z,58.75
2022-09-20T14:56:10.558Z,58.28
2022-09-20T15:00:16.453Z,57.76
2022-09-20T15:04:22.794Z,58.18
2022-09-20T15:08:26.706Z,58.60
2022-09-20T15:12:30.954Z,60.09
2022-09-20T15:16:35.080Z,59.36
2022-09-20T15:20:40.139Z,58.86
2022-09-20T15:24:44.797Z,56.76
2022-09-20T15:28:48.840Z,56.24
2022-09-20T15:32:53.656Z,57.41
2022-09-20T15:36:59.033Z,57.13
2022-09-20T15:41:04.815Z,57.31
2022-09-20T15:45:10.254Z,57.10
2022-09-20T15:49:14.093Z,57.54
2022-09-20T15:53:18.600Z,58.78
2022-09-20T15:57:22.340Z,60.38
2022-09-20T16:01:26.300Z,60.70
2022-09-20T16:05:29.796Z,61.50
2022-09-20T16:09:36.132Z,60.38
2022-09-20T16:13:39.658Z,60.67
2022-09-20T16:18:00.678Z,60.90
2022-09-20T16:22:04.127Z,61.41
2022-09-20T16:26:13.168Z,61.88
2022-09-20T16:30:16.979Z,63.03
2022-09-20T16:34:22.317Z,62.58
2022-09-20T16:38:25.376Z,62.87
2022-09-20T16:42:30.333Z,62.47
2022-09-20T16:46:37.370Z,63.26
2022-09-20T16:50:40.899Z,62.98
2022-09-20T16:54:44.033Z,63.44
2022-09-20T16:58:49.302Z,62.13
2022-09-20T17:02:53.501Z,61.92
2022-09-20T17:06:56.513Z,62.51
2022-09-20T17:11:03.737Z,62.60
2022-09-20T17:15:12.274Z,63.44
2022-09-20T17:19:18.499Z,63.14
2022-09-20T17:23:22.224Z,63.56
2022-09-20T17:27:25.875Z,64.32
2022-09-20T17:31:33.815Z,64.02
2022-09-20T17:35:37.400Z,64.58
2022-09-20T17:39:41.737Z,64.66
2022-09-20T17:43:46.822Z,65.20
2022-09-20T17:47:52.173Z,64.90
2022-09-20T17:51:58.248Z,64.68
2022-09-20T17:56:02.512Z,64.91
2022-09-20T18:00:06.819Z,64.70
2022-09-20T18:04:12.608Z,64.70
2022-09-20T18:08:17.087Z,65.27
2022-09-20T18:12:21.549Z,65.50
2022-09-20T18:16:25.665Z,66.04
2022-09-20T18:20:30.445Z,67.39
2022-09-20T18:24:34.056Z,67.68
2022-09-20T18:28:37.557Z,67.74
2022-09-20T18:32:44.495Z,67.40
2022-09-20T18:36:54.807Z,67.75
2022-09-20T18:41:00.954Z,67.93
2022-09-20T18:45:04.566Z,67.56
2022-09-20T18:49:10.859Z,67.36
2022-09-20T18:53:15.787Z,67.88
2022-09-20T18:57:19.879Z,68.39
2022-09-20T19:02:02.505Z,67.51
2022-09-20T19:06:12.051Z,68.65
2022-09-20T19:10:24.997Z,68.37
2022-09-20T19:14:31.692Z,67.38
2022-09-20T19:18:57.143Z,68.03
2022-09-20T19:23:13.418Z,68.71
2022-09-20T19:27:19.015Z,69.14
2022-09-20T19:31:27.363Z,69.36
2022-09-20T19:35:38.748Z,69.15
2022-09-20T19:39:58.868Z,68.58
2022-09-20T19:44:18.512Z,68.49
2022-09-20T19:48:30.904Z,68.88
2022-09-20T19:52:34.771Z,68.88
2022-09-20T19:56:48.903Z,68.82
2022-09-20T20:00:54.144Z,68.69
2022-09-20T20:04:58.604Z,69.19
2022-09-20T20:09:09.982Z,69.08
2022-09-20T20:13:37.902Z,69.09
2022-09-20T20:17:53.939Z,69.16
2022-09-20T20:22:00.567Z,69.43
2022-09-20T20:26:09.373Z,69.68
2022-09-20T20:30:13.449Z,69.72
2022-09-20T20:34:17.928Z,70.04
2022-09-20T20:38:22.918Z,69.99
2022-09-20T20:42:27.983Z,70.37
2022-09-20T20:46:32.719Z,70.43
2022-09-20T20:50:37.856Z,70.40
2022-09-20T20:54:41.317Z,70.74
2022-09-20T20:58:45.551Z,70.86
2022-09-20T21:02:50.024Z,70.65
2022-09-20T21:06:54.968Z,70.53
2022-09-20T21:11:02.282Z,70.80
2022-09-20T21:15:07.046Z,71.18
2022-09-20T21:19:15.265Z,71.14
2022-09-20T21:23:19.697Z,71.18
2022-09-20T21:27:23.270Z,71.10
2022-09-20T21:31:27.827Z,71.29
2022-09-20T21:35:31.347Z,71.70
2022-09-20T21:39:36.195Z,71.46
2022-09-20T21:43:42.057Z,71.45
2022-09-20T21:47:50.260Z,71.19
2022-09-20T21:51:54.003Z,70.97
2022-09-20T21:55:59.725Z,71.08
2022-09-20T22:00:03.409Z,70.99
2022-09-20T22:04:08.259Z,70.59
2022-09-20T22:08:11.496Z,70.84
2022-09-20T22:12:17.573Z,70.86
2022-09-20T22:16:23.531Z,70.81
2022-09-20T22:20:26.676Z,70.43
2022-09-20T22:24:30.510Z,70.54
2022-09-20T22:28:37.182Z,70.70
2022-09-20T22:32:40.851Z,70.65
2022-09-20T22:36:44.876Z,70.69
2022-09-20T22:40:58.488Z,70.33
2022-09-20T22:45:02.990Z,70.41
2022-09-20T22:49:07.170Z,70.85
2022-09-20T22:53:10.670Z,70.84
2022-09-20T22:57:13.994Z,70.82
2022-09-20T23:01:23.083Z,71.00
2022-09-20T23:05:26.493Z,70.73
2022-09-20T23:09:29.841Z,71.01
2022-09-20T23:13:33.299Z,70.84
2022-09-20T23:17:38.215Z,70.99
2022-09-20T23:21:42.968Z,70.71
2022-09-20T23:25:47.139Z,70.44
2022-09-20T23:29:50.285Z,70.80
2022-09-20T23:33:56.846Z,70.85
2022-09-20T23:37:59.925Z,71.07
2022-09-20T23:42:03.382Z,70.87
2022-09-20T23:46:07.715Z,70.62
2022-09-20T23:50:12.711Z,70.55
2022-09-20T23:54:15.857Z,70.64
2022-09-20T23:58:19.425Z,70.44
